createdAt,value
2019-06-15T00:08:32.598Z,93587.10
2019-06-15T00:18:34.088Z,93580.66
2019-06-15T00:28:35.591Z,93557.63
2019-06-15T00:38:37.143Z,93555.22
2019-06-15T00:48:38.563Z,93530.52
2019-06-15T00:58:41.287Z,93520.06
2019-06-15T01:08:42.832Z,93524.60
2019-06-15T01:18:44.258Z,93524.78
2019-06-15T01:28:47.736Z,93531.13
2019-06-15T01:38:49.220Z,93520.29
2019-06-15T01:48:50.748Z,93538.49
2019-06-15T01:58:52.165Z,93548.92
2019-06-15T02:08:53.630Z,93562.41
2019-06-15T02:18:55.088Z,93583.09
2019-06-15T02:28:56.569Z,93598.13
2019-06-15T02:38:57.998Z,93618.52
2019-06-15T02:48:59.628Z,93655.00
2019-06-15T02:59:01.173Z,93688.50
2019-06-15T03:09:04.733Z,93717.80
2019-06-15T03:19:06.355Z,93726.67
2019-06-15T03:29:07.840Z,93781.34
2019-06-15T03:39:09.353Z,93782.05
2019-06-15T03:49:10.776Z,93811.70
2019-06-15T03:59:12.318Z,93820.08
2019-06-15T04:09:15.655Z,93836.70
2019-06-15T04:19:17.095Z,93857.62
2019-06-15T04:29:18.556Z,93864.30
2019-06-15T04:39:20.974Z,93861.75
2019-06-15T04:49:22.538Z,93878.17
2019-06-15T04:59:23.974Z,93892.08
2019-06-15T05:09:25.408Z,93905.61
2019-06-15T05:19:26.837Z,93917.81
2019-06-15T05:29:31.316Z,93914.70
2019-06-15T05:39:32.725Z,93914.56
2019-06-15T05:49:34.157Z,93927.62
2019-06-15T05:59:35.815Z,93943.02
2019-06-15T06:09:37.238Z,93961.02
2019-06-15T06:19:38.667Z,93958.91
2019-06-15T06:29:40.266Z,93967.68
2019-06-15T06:39:41.716Z,93993.66
2019-06-15T06:49:43.264Z,93994.17
2019-06-15T06:59:44.712Z,94013.30
2019-06-15T07:09:46.167Z,94030.98
2019-06-15T07:19:47.696Z,94038.44
2019-06-15T07:29:49.142Z,94032.76
2019-06-15T07:39:50.576Z,94046.52
2019-06-15T07:49:51.996Z,94064.44
2019-06-15T07:59:53.450Z,94069.73
2019-06-15T08:09:54.885Z,94081.25
2019-06-15T08:19:56.302Z,94108.52
2019-06-15T08:29:57.787Z,94110.33
2019-06-15T08:39:59.368Z,94115.45
2019-06-15T08:50:00.926Z,94124.70
2019-06-15T09:00:07.119Z,94134.06
2019-06-15T09:10:09.467Z,94137.81
2019-06-15T09:20:11.610Z,94140.62
2019-06-15T09:30:13.318Z,94151.98
2019-06-15T09:40:15.934Z,94158.45
2019-06-15T09:50:17.775Z,94148.67
2019-06-15T10:00:19.427Z,94146.05
2019-06-15T10:10:20.890Z,94150.11
2019-06-15T10:20:22.537Z,94158.80
2019-06-15T10:30:24.237Z,94156.32
2019-06-15T10:40:26.122Z,94154.41
2019-06-15T10:50:27.959Z,94148.91
2019-06-15T11:00:29.689Z,94146.75
2019-06-15T11:10:45.966Z,94139.46
2019-06-15T11:20:47.627Z,94157.53
2019-06-15T11:30:49.206Z,94169.27
2019-06-15T11:40:50.692Z,94157.12
2019-06-15T11:50:52.153Z,94150.74
2019-06-15T12:00:53.819Z,94157.29
2019-06-15T12:10:57.319Z,94166.19
2019-06-15T12:21:01.180Z,94150.80
2019-06-15T12:31:02.998Z,94141.38
2019-06-15T12:41:04.787Z,94140.31
2019-06-15T12:51:06.340Z,94152.30
2019-06-15T13:01:07.914Z,94143.30
2019-06-15T13:11:09.480Z,94134.42
2019-06-15T13:21:10.945Z,94149.59
2019-06-15T13:31:18.069Z,94135.60
2019-06-15T13:41:16.039Z,94132.62
2019-06-15T13:51:17.499Z,94125.27
2019-06-15T14:01:33.332Z,94122.38
2019-06-15T14:11:22.594Z,94121.22
2019-06-15T14:21:24.052Z,94126.37
2019-06-15T14:31:25.529Z,94118.68
2019-06-15T14:41:26.974Z,94109.42
2019-06-15T14:51:28.394Z,94119.13
2019-06-15T15:01:29.824Z,94114.77
2019-06-15T15:11:36.596Z,94113.69
2019-06-15T15:21:37.727Z,94095.08
2019-06-15T15:31:39.280Z,94109.42
2019-06-15T15:41:41.320Z,94099.23
2019-06-15T15:51:42.749Z,94097.28
2019-06-15T16:01:46.165Z,94088.92
2019-06-15T16:11:47.857Z,94077.55
2019-06-15T16:21:49.507Z,94081.69
2019-06-15T16:31:50.941Z,94077.28
2019-06-15T16:41:52.841Z,94059.15
2019-06-15T16:51:54.595Z,94055.81
2019-06-15T17:01:56.145Z,94055.75
2019-06-15T17:11:57.835Z,94067.85
2019-06-15T17:22:13.758Z,94077.86
2019-06-15T17:32:02.848Z,94081.71
2019-06-15T17:42:06.912Z,94076.91
2019-06-15T17:52:07.948Z,94073.66
2019-06-15T18:02:09.488Z,94079.97
2019-06-15T18:12:11.179Z,94082.98
2019-06-15T18:22:12.633Z,94072.23
2019-06-15T18:32:14.090Z,94036.20
2019-06-15T18:42:16.440Z,94035.77
2019-06-15T18:52:18.096Z,94030.53
2019-06-15T19:02:19.532Z,94066.77
2019-06-15T19:12:21.042Z,94124.41
2019-06-15T19:22:22.476Z,94197.68
2019-06-15T19:32:26.224Z,94226.98
2019-06-15T19:42:27.758Z,94279.36
2019-06-15T19:52:29.406Z,94272.11
2019-06-15T20:02:30.853Z,94281.79
2019-06-15T20:12:32.408Z,94328.11
2019-06-15T20:22:37.023Z,94383.08
2019-06-15T20:32:37.666Z,94364.60
2019-06-15T20:42:39.120Z,94377.45
